Time;durP1;ratioP1;P1;durP2;ratioP2;P2;SDS_P1;SDS_P2;PMS_P1;PMS_P2;Temp;Humidity;BMP_temperature;BMP_pressure;BME280_temperature;BME280_humidity;BME280_pressure;Samples;Min_cycle;Max_cycle;Signal;HPM_P1;HPM_P2
2022/07/17 00:02:22;;;;;;;13.18;8.65;;;27.40;99.90;;;;;;1814878;79;21240;-82
2022/07/17 00:04:53;;;;;;;11.33;8.95;;;27.40;99.90;;;;;;1856925;76;21160;-81
2022/07/17 00:07:25;;;;;;;11.85;8.70;;;27.40;99.90;;;;;;1852414;76;21155;-82
2022/07/17 00:09:56;;;;;;;12.05;8.68;;;27.40;99.90;;;;;;1851385;76;21087;-82
2022/07/17 00:12:27;;;;;;;12.78;8.45;;;27.40;99.90;;;;;;1853707;77;21089;-81
2022/07/17 00:14:58;;;;;;;13.05;8.38;;;27.50;99.90;;;;;;1864658;76;21650;-80
2022/07/17 00:17:29;;;;;;;12.40;9.20;;;27.50;99.90;;;;;;1859324;76;21201;-81
2022/07/17 00:20:00;;;;;;;13.90;8.98;;;27.50;99.90;;;;;;1846168;76;21136;-83
2022/07/17 00:22:31;;;;;;;12.13;8.18;;;27.50;99.90;;;;;;1849279;76;21628;-82
2022/07/17 00:25:03;;;;;;;12.78;8.88;;;27.50;99.90;;;;;;1799486;79;21150;-82
2022/07/17 00:27:34;;;;;;;14.73;9.03;;;27.50;99.90;;;;;;1854293;76;21152;-81
2022/07/17 00:30:07;;;;;;;14.95;8.43;;;27.50;99.90;;;;;;1851352;76;21131;-82
2022/07/17 00:32:44;;;;;;;14.18;9.00;;;27.50;99.90;;;;;;1820255;77;21151;-81
2022/07/17 00:35:24;;;;;;;10.70;8.55;;;27.50;99.90;;;;;;1788196;77;21261;-82
2022/07/17 00:38:00;;;;;;;11.50;9.63;;;27.60;99.90;;;;;;1853993;76;21140;-82
2022/07/17 00:40:31;;;;;;;12.47;10.55;;;27.60;99.90;;;;;;1854543;76;21143;-81
2022/07/17 00:43:02;;;;;;;17.32;11.08;;;27.60;99.90;;;;;;1854746;76;21163;-83
2022/07/17 00:45:33;;;;;;;15.50;11.30;;;27.60;99.90;;;;;;1813773;77;21201;-81
2022/07/17 00:48:07;;;;;;;13.45;10.60;;;27.70;99.90;;;;;;1850739;76;21134;-82
2022/07/17 00:50:41;;;;;;;12.80;11.00;;;27.70;99.90;;;;;;1819376;77;21638;-82
2022/07/17 00:53:11;;;;;;;15.85;12.13;;;27.70;99.90;;;;;;1813599;77;21177;-82
2022/07/17 00:55:43;;;;;;;13.30;11.90;;;27.80;99.90;;;;;;1808641;79;21182;-82
2022/07/17 00:58:17;;;;;;;13.15;11.15;;;27.80;99.90;;;;;;1811869;78;21173;-82
2022/07/17 01:00:50;;;;;;;12.18;9.85;;;27.80;99.90;;;;;;1819176;77;21568;-81
2022/07/17 01:03:24;;;;;;;11.53;9.85;;;27.90;99.90;;;;;;1850031;76;21113;-82
2022/07/17 01:05:55;;;;;;;12.07;10.03;;;27.90;99.90;;;;;;1834856;77;21160;-83
2022/07/17 01:08:27;;;;;;;15.32;10.05;;;28.00;99.90;;;;;;1810196;77;21505;-83
2022/07/17 01:10:58;;;;;;;12.15;9.65;;;28.20;99.90;;;;;;1825179;78;21109;-83
2022/07/17 01:13:29;;;;;;;12.28;9.35;;;28.20;99.90;;;;;;1855555;76;21677;-82
2022/07/17 01:16:00;;;;;;;14.78;9.50;;;28.30;99.90;;;;;;1864065;76;21088;-82
2022/07/17 01:18:31;;;;;;;16.23;9.35;;;28.30;99.90;;;;;;1851211;76;21140;-83
2022/07/17 01:21:07;;;;;;;12.98;9.03;;;28.30;99.90;;;;;;1865508;76;21152;-83
2022/07/17 01:23:38;;;;;;;15.00;10.13;;;28.30;99.90;;;;;;1816819;78;21157;-82
2022/07/17 01:26:09;;;;;;;12.73;9.60;;;28.30;99.90;;;;;;1856804;77;21140;-83
2022/07/17 01:28:40;;;;;;;13.25;9.88;;;28.30;99.90;;;;;;1818866;77;21150;-82
2022/07/17 01:31:11;;;;;;;13.05;9.75;;;28.30;99.90;;;;;;1809271;77;21243;-82
2022/07/17 01:33:43;;;;;;;14.40;10.32;;;28.40;99.90;;;;;;1812455;77;21104;-82
2022/07/17 01:36:14;;;;;;;14.40;9.35;;;28.40;99.90;;;;;;1856342;76;21134;-82
2022/07/17 01:38:46;;;;;;;11.30;9.38;;;28.40;99.90;;;;;;1853114;76;21842;-83
2022/07/17 01:41:17;;;;;;;18.62;10.28;;;28.50;99.90;;;;;;1853316;76;21101;-83
2022/07/17 01:43:49;;;;;;;13.28;9.13;;;28.60;99.90;;;;;;1855640;76;21163;-84
2022/07/17 01:46:20;;;;;;;11.78;8.75;;;28.60;99.90;;;;;;1854703;76;21199;-83
2022/07/17 01:48:51;;;;;;;12.53;8.83;;;28.70;99.90;;;;;;1858397;76;21107;-83
2022/07/17 01:51:23;;;;;;;12.65;8.70;;;28.90;99.90;;;;;;1841461;78;21139;-84
2022/07/17 01:53:56;;;;;;;11.45;7.67;;;29.00;99.90;;;;;;1825638;77;21257;-82
2022/07/17 01:56:27;;;;;;;10.82;8.50;;;29.20;99.90;;;;;;1859518;76;21143;-82
2022/07/17 01:58:59;;;;;;;12.03;8.93;;;29.20;99.90;;;;;;1838783;76;21172;-84
2022/07/17 02:01:30;;;;;;;13.78;8.20;;;29.30;99.90;;;;;;1873787;75;21149;-85
2022/07/17 02:04:02;;;;;;;10.75;8.33;;;29.20;99.90;;;;;;1839499;75;21185;-86
2022/07/17 02:06:33;;;;;;;12.53;8.98;;;29.20;99.90;;;;;;1874353;74;21093;-83
2022/07/17 02:09:04;;;;;;;10.55;8.08;;;29.10;99.90;;;;;;1873141;75;21148;-82
2022/07/17 02:11:37;;;;;;;11.93;8.35;;;29.00;99.90;;;;;;1872932;75;21147;-82
2022/07/17 02:14:08;;;;;;;11.65;8.55;;;29.00;99.90;;;;;;1873302;77;21179;-83
2022/07/17 02:16:39;;;;;;;14.25;7.92;;;29.00;99.90;;;;;;1838152;78;21122;-82
2022/07/17 02:19:11;;;;;;;12.28;8.63;;;29.10;99.90;;;;;;1873883;75;21233;-84
2022/07/17 02:21:42;;;;;;;13.28;8.75;;;29.20;99.90;;;;;;1870160;75;21128;-85
2022/07/17 02:24:13;;;;;;;12.93;10.45;;;29.20;99.90;;;;;;1866111;75;21572;-84
2022/07/17 02:26:44;;;;;;;20.95;14.98;;;29.40;99.90;;;;;;1865836;77;21233;-83
2022/07/17 02:29:16;;;;;;;12.18;8.35;;;29.50;99.90;;;;;;1869897;77;22374;-84
2022/07/17 02:31:54;;;;;;;11.93;9.23;;;29.60;99.90;;;;;;1868990;76;21125;-86
2022/07/17 02:34:25;;;;;;;14.80;9.90;;;29.80;99.90;;;;;;1866934;77;21142;-84
2022/07/17 02:37:04;;;;;;;15.45;9.83;;;29.90;99.90;;;;;;1869436;77;21236;-82
2022/07/17 02:39:35;;;;;;;12.82;8.83;;;30.10;99.90;;;;;;1840341;77;21106;-85
2022/07/17 02:42:09;;;;;;;14.00;8.53;;;30.20;99.90;;;;;;1841915;77;21108;-84
2022/07/17 02:44:39;;;;;;;9.45;7.85;;;30.30;99.90;;;;;;1855189;77;21100;-83
2022/07/17 02:47:10;;;;;;;13.10;8.88;;;30.40;99.90;;;;;;1866900;77;21092;-81
2022/07/17 02:49:42;;;;;;;10.93;7.45;;;30.50;99.90;;;;;;1843813;77;21122;-70
2022/07/17 02:52:13;;;;;;;12.35;7.85;;;30.60;99.90;;;;;;1902373;75;21201;-70
2022/07/17 02:54:44;;;;;;;12.20;7.55;;;30.60;99.90;;;;;;1901224;75;21209;-70
2022/07/17 02:57:16;;;;;;;12.00;8.35;;;30.50;99.90;;;;;;1894023;75;21154;-70
2022/07/17 02:59:47;;;;;;;11.10;7.42;;;30.50;99.90;;;;;;1881705;76;21823;-71
2022/07/17 03:02:18;;;;;;;11.70;7.65;;;30.50;99.90;;;;;;1879951;75;21233;-71
2022/07/17 03:04:49;;;;;;;10.75;7.97;;;30.60;99.90;;;;;;1884113;75;21218;-70
2022/07/17 03:07:20;;;;;;;10.72;7.55;;;30.80;99.90;;;;;;1883766;75;21087;-71
2022/07/17 03:09:52;;;;;;;10.95;7.40;;;30.80;99.90;;;;;;1885604;75;21633;-70
2022/07/17 03:12:23;;;;;;;10.15;6.75;;;30.90;99.30;;;;;;1888639;75;21115;-70
2022/07/17 03:14:54;;;;;;;11.30;7.12;;;31.10;98.70;;;;;;1858202;76;21489;-71
2022/07/17 03:17:25;;;;;;;11.65;6.83;;;31.00;97.90;;;;;;1883353;75;21570;-70
2022/07/17 03:19:57;;;;;;;13.70;7.83;;;31.10;98.60;;;;;;1879322;75;21590;-70
2022/07/17 03:22:28;;;;;;;10.82;6.95;;;31.10;98.80;;;;;;1881772;76;21080;-70
2022/07/17 03:24:58;;;;;;;9.03;6.33;;;31.20;98.20;;;;;;1884439;75;21256;-70
2022/07/17 03:27:29;;;;;;;8.35;6.50;;;31.30;98.00;;;;;;1882363;75;21153;-70
2022/07/17 03:30:00;;;;;;;10.68;7.10;;;31.40;97.80;;;;;;1881421;76;21533;-69
2022/07/17 03:32:31;;;;;;;9.95;6.58;;;31.50;97.40;;;;;;1879953;76;21253;-71
2022/07/17 03:35:02;;;;;;;11.53;7.60;;;31.40;97.10;;;;;;1881815;76;21126;-70
2022/07/17 03:37:33;;;;;;;10.45;7.03;;;31.50;97.30;;;;;;1881610;76;21095;-70
2022/07/17 03:40:06;;;;;;;9.08;6.30;;;31.60;97.20;;;;;;1882101;76;21142;-70
2022/07/17 03:42:37;;;;;;;11.43;6.62;;;31.70;97.50;;;;;;1881760;76;21126;-71
2022/07/17 03:45:08;;;;;;;10.15;6.25;;;31.90;97.90;;;;;;1881943;76;21107;-68
2022/07/17 03:47:39;;;;;;;10.48;6.92;;;32.00;96.30;;;;;;1885237;75;21386;-69
2022/07/17 03:50:10;;;;;;;12.58;6.50;;;32.00;96.40;;;;;;1886038;75;21692;-69
2022/07/17 03:52:41;;;;;;;8.08;6.10;;;32.10;96.30;;;;;;1887411;75;21707;-70
2022/07/17 03:55:12;;;;;;;13.05;6.83;;;32.10;96.00;;;;;;1797923;79;21158;-70
2022/07/17 03:57:42;;;;;;;9.75;5.92;;;32.20;95.70;;;;;;1814603;78;21319;-70
2022/07/17 04:00:14;;;;;;;7.95;6.50;;;32.30;95.30;;;;;;1821061;77;21638;-69
2022/07/17 04:02:45;;;;;;;12.53;6.65;;;32.40;94.90;;;;;;1813389;78;21637;-70
2022/07/17 04:05:16;;;;;;;10.90;6.17;;;32.50;94.80;;;;;;1830039;77;21195;-70
2022/07/17 04:07:48;;;;;;;11.33;6.50;;;32.50;94.00;;;;;;1857295;77;21114;-70
2022/07/17 04:10:19;;;;;;;11.88;6.70;;;32.50;94.30;;;;;;1826289;78;21102;-69
2022/07/17 04:12:49;;;;;;;9.55;6.35;;;32.60;94.00;;;;;;1836744;78;21766;-70
2022/07/17 04:17:53;;;;;;;9.53;6.12;;;32.60;94.60;;;;;;1801068;78;21166;-69
2022/07/17 04:20:24;;;;;;;8.65;5.95;;;32.70;94.30;;;;;;1834281;77;21137;-70
2022/07/17 04:22:54;;;;;;;10.98;5.72;;;32.80;93.80;;;;;;1840779;77;21131;-69
2022/07/17 04:25:26;;;;;;;10.35;5.67;;;32.90;94.10;;;;;;1837900;76;21621;-70
2022/07/17 04:27:57;;;;;;;7.55;5.42;;;33.00;94.30;;;;;;1840126;76;21140;-70
2022/07/17 04:30:28;;;;;;;10.60;6.08;;;33.00;93.60;;;;;;1847449;76;21135;-70
2022/07/17 04:32:59;;;;;;;9.33;5.62;;;33.10;93.10;;;;;;1835009;76;21150;-70
2022/07/17 04:35:30;;;;;;;12.03;5.70;;;33.10;92.90;;;;;;1850240;76;21201;-70
2022/07/17 04:38:01;;;;;;;7.05;5.53;;;33.20;93.60;;;;;;1862384;75;21236;-70
2022/07/17 04:40:53;;;;;;;8.70;5.87;;;33.20;93.30;;;;;;1889364;75;21704;-71
2022/07/17 04:43:24;;;;;;;7.10;5.40;;;33.40;93.00;;;;;;1862292;76;21169;-70
2022/07/17 04:45:55;;;;;;;9.93;5.70;;;33.40;91.90;;;;;;1849357;77;21665;-71
2022/07/17 04:48:26;;;;;;;8.95;5.60;;;33.40;92.30;;;;;;1837632;77;21202;-71
2022/07/17 04:50:56;;;;;;;10.43;5.85;;;33.40;91.80;;;;;;1850294;77;21140;-71
2022/07/17 04:53:28;;;;;;;10.08;5.90;;;33.40;91.50;;;;;;1841193;77;21209;-71
2022/07/17 04:55:59;;;;;;;9.05;5.70;;;33.30;91.50;;;;;;1899333;74;21134;-71
2022/07/17 04:58:30;;;;;;;7.50;5.53;;;33.30;91.80;;;;;;1897470;75;21728;-71
2022/07/17 05:01:02;;;;;;;7.87;5.22;;;33.40;91.90;;;;;;1900036;74;21170;-70
2022/07/17 05:03:33;;;;;;;9.08;5.22;;;33.50;91.60;;;;;;1899910;75;21193;-70
2022/07/17 05:06:04;;;;;;;8.90;5.42;;;33.70;90.50;;;;;;1901525;75;21169;-72
2022/07/17 05:08:37;;;;;;;7.90;5.08;;;33.80;90.70;;;;;;1901363;75;22201;-70
2022/07/17 05:11:08;;;;;;;9.28;6.10;;;33.70;89.90;;;;;;1900863;75;21102;-70
2022/07/17 05:13:39;;;;;;;9.48;5.42;;;33.80;90.70;;;;;;1901863;75;22290;-72
2022/07/17 05:16:11;;;;;;;8.33;5.58;;;33.90;90.30;;;;;;1901777;74;21147;-70
2022/07/17 05:18:42;;;;;;;7.75;5.22;;;33.80;91.00;;;;;;1900957;75;21206;-71
2022/07/17 05:21:15;;;;;;;8.08;6.03;;;33.80;91.00;;;;;;1899981;75;21177;-71
2022/07/17 05:23:46;;;;;;;8.40;6.50;;;33.70;91.50;;;;;;1845237;76;21156;-70
2022/07/17 05:26:18;;;;;;;10.50;6.17;;;33.90;91.30;;;;;;1895099;75;21078;-70
2022/07/17 05:28:49;;;;;;;7.37;6.28;;;33.90;91.40;;;;;;1901388;75;21181;-71
2022/07/17 05:31:20;;;;;;;7.92;5.85;;;33.70;91.80;;;;;;1900930;75;21724;-70
2022/07/17 05:33:51;;;;;;;8.83;5.90;;;33.50;91.80;;;;;;1895714;75;21131;-71
2022/07/17 05:36:23;;;;;;;10.23;6.62;;;33.40;92.20;;;;;;1895037;74;21141;-70
2022/07/17 05:38:55;;;;;;;8.53;6.33;;;33.20;92.10;;;;;;1872714;74;21657;-70
2022/07/17 05:41:26;;;;;;;9.25;6.22;;;33.10;92.80;;;;;;1901025;75;21184;-70
2022/07/17 05:43:57;;;;;;;8.25;5.92;;;33.00;92.40;;;;;;1904388;74;21174;-69
2022/07/17 05:46:28;;;;;;;6.67;5.58;;;32.90;92.40;;;;;;1854548;77;21214;-71
2022/07/17 05:48:59;;;;;;;10.10;6.15;;;32.90;92.40;;;;;;1905730;75;21153;-71
2022/07/17 05:51:30;;;;;;;9.68;6.72;;;32.90;93.00;;;;;;1902157;74;21110;-71
2022/07/17 05:54:01;;;;;;;7.92;5.92;;;32.90;93.10;;;;;;1822992;77;21081;-71
2022/07/17 05:56:32;;;;;;;9.08;5.95;;;32.90;92.60;;;;;;1908354;75;21063;-71
2022/07/17 05:59:03;;;;;;;10.60;5.83;;;33.00;92.30;;;;;;1900789;75;21166;-71
2022/07/17 06:01:37;;;;;;;7.50;5.90;;;33.10;92.20;;;;;;1821440;78;21121;-71
2022/07/17 06:04:07;;;;;;;9.60;5.97;;;33.20;92.40;;;;;;1871555;76;21188;-71
2022/07/17 06:06:38;;;;;;;8.48;5.95;;;33.20;92.30;;;;;;1900524;75;21110;-70
2022/07/17 06:09:09;;;;;;;7.12;5.75;;;33.10;92.20;;;;;;1896111;75;22125;-71
2022/07/17 06:11:40;;;;;;;9.73;6.20;;;33.10;92.40;;;;;;1818332;78;21082;-72
2022/07/17 06:14:12;;;;;;;11.38;6.20;;;33.00;93.10;;;;;;1850918;76;21132;-71
2022/07/17 06:16:43;;;;;;;9.63;6.75;;;32.90;92.90;;;;;;1853424;76;21189;-72
2022/07/17 06:19:14;;;;;;;8.38;6.28;;;32.90;93.20;;;;;;1897311;75;21079;-71
2022/07/17 06:21:45;;;;;;;9.30;5.95;;;32.90;93.60;;;;;;1861532;76;21119;-72
2022/07/17 06:24:16;;;;;;;8.98;5.83;;;33.00;92.50;;;;;;1899666;75;21077;-71
2022/07/17 06:26:47;;;;;;;8.85;6.00;;;33.10;92.40;;;;;;1823132;78;21206;-72
2022/07/17 06:29:18;;;;;;;6.97;5.65;;;33.10;92.60;;;;;;1813329;78;21197;-71
2022/07/17 06:31:49;;;;;;;8.90;6.20;;;33.10;92.60;;;;;;1814104;78;21183;-71
2022/07/17 06:34:20;;;;;;;9.35;6.20;;;33.10;92.10;;;;;;1833905;77;21097;-72
2022/07/17 06:36:51;;;;;;;8.68;5.42;;;33.20;92.20;;;;;;1846158;77;21127;-71
2022/07/17 06:39:23;;;;;;;10.45;6.78;;;33.30;92.10;;;;;;1851697;77;21651;-71
2022/07/17 06:41:54;;;;;;;8.68;6.15;;;33.30;92.60;;;;;;1853799;77;21159;-71
2022/07/17 06:44:25;;;;;;;10.55;6.33;;;33.30;93.20;;;;;;1857863;77;21559;-71
2022/07/17 06:46:56;;;;;;;9.38;5.75;;;33.40;92.30;;;;;;1855345;77;21143;-71
2022/07/17 06:49:27;;;;;;;10.18;6.78;;;33.40;92.10;;;;;;1856069;77;21203;-71
2022/07/17 06:51:57;;;;;;;7.67;5.75;;;33.50;92.20;;;;;;1880241;76;21115;-71
2022/07/17 06:54:28;;;;;;;6.58;4.83;;;33.50;92.00;;;;;;1858565;77;21232;-70
2022/07/17 06:56:59;;;;;;;8.80;5.45;;;33.60;87.40;;;;;;1842179;76;22275;-71
2022/07/17 06:59:30;;;;;;;7.30;5.75;;;33.60;87.70;;;;;;1853519;77;21119;-70
2022/07/17 07:02:01;;;;;;;6.40;5.72;;;33.60;89.20;;;;;;1859385;77;21226;-71
2022/07/17 07:04:32;;;;;;;9.60;6.78;;;33.60;90.10;;;;;;1852633;76;21176;-70
2022/07/17 07:07:03;;;;;;;8.18;6.12;;;33.60;90.40;;;;;;1859540;77;21069;-71
2022/07/17 07:09:34;;;;;;;10.30;6.65;;;33.70;90.80;;;;;;1853098;77;21213;-72
2022/07/17 07:12:07;;;;;;;8.65;6.03;;;33.60;90.50;;;;;;1857598;77;21114;-71
2022/07/17 07:14:38;;;;;;;8.78;5.92;;;33.50;90.90;;;;;;1859290;76;21164;-71
2022/07/17 07:17:09;;;;;;;8.88;5.80;;;33.50;90.50;;;;;;1858731;77;21235;-71
2022/07/17 07:19:40;;;;;;;8.18;5.97;;;33.40;90.40;;;;;;1860559;77;21693;-71
2022/07/17 07:22:11;;;;;;;7.53;5.42;;;33.40;91.10;;;;;;1858888;77;21697;-71
2022/07/17 07:24:42;;;;;;;7.78;5.58;;;33.40;90.40;;;;;;1859449;77;21251;-70
2022/07/17 07:27:13;;;;;;;8.43;5.42;;;33.40;88.80;;;;;;1855111;77;21827;-71
2022/07/17 07:29:45;;;;;;;9.20;5.60;;;33.30;89.30;;;;;;1857375;77;21709;-71
2022/07/17 07:32:16;;;;;;;6.83;5.53;;;33.30;90.10;;;;;;1864226;76;21221;-72
2022/07/17 07:34:47;;;;;;;8.93;5.90;;;33.20;90.40;;;;;;1849137;77;21791;-71
2022/07/17 07:37:18;;;;;;;9.93;5.83;;;33.10;90.40;;;;;;1859461;77;21147;-72
2022/07/17 07:39:49;;;;;;;9.63;5.90;;;33.10;90.70;;;;;;1857960;76;21143;-70
2022/07/17 07:42:20;;;;;;;6.22;5.17;;;33.00;90.60;;;;;;1856451;77;21195;-72
2022/07/17 07:44:53;;;;;;;7.10;5.67;;;33.00;90.60;;;;;;1842419;77;21682;-70
2022/07/17 07:47:24;;;;;;;7.72;5.90;;;32.90;90.80;;;;;;1901644;75;21191;-70
2022/07/17 07:49:55;;;;;;;6.97;5.50;;;32.90;90.90;;;;;;1843117;77;21094;-71
2022/07/17 07:52:26;;;;;;;7.17;5.12;;;32.90;91.00;;;;;;1828887;78;21176;-73
2022/07/17 07:54:58;;;;;;;6.37;4.92;;;32.90;91.20;;;;;;1819920;78;21828;-71
2022/07/17 07:57:31;;;;;;;9.40;4.50;;;33.00;91.80;;;;;;1796240;79;21181;-71
2022/07/17 08:00:02;;;;;;;7.20;4.28;;;33.10;92.70;;;;;;1829024;77;22183;-70
2022/07/17 08:02:34;;;;;;;6.83;4.80;;;33.20;92.60;;;;;;1895000;75;21523;-71
2022/07/17 08:05:06;;;;;;;6.22;4.30;;;33.20;92.20;;;;;;1897985;74;21146;-71
2022/07/17 08:07:39;;;;;;;5.33;3.98;;;33.30;91.70;;;;;;1893439;74;21153;-72
2022/07/17 08:10:11;;;;;;;5.75;4.03;;;33.30;91.60;;;;;;1893252;74;21134;-71
2022/07/17 08:12:43;;;;;;;8.95;4.30;;;33.30;92.20;;;;;;1906561;74;21107;-70
2022/07/17 08:15:17;;;;;;;5.87;3.42;;;33.30;92.30;;;;;;1911028;74;21077;-72
2022/07/17 08:17:50;;;;;;;6.67;4.70;;;33.20;92.10;;;;;;1913375;74;21088;-73
2022/07/17 08:20:22;;;;;;;5.30;3.92;;;33.10;92.70;;;;;;1901063;74;21118;-71
2022/07/17 08:22:56;;;;;;;5.53;3.75;;;33.10;92.90;;;;;;1913895;74;21158;-71
2022/07/17 08:25:29;;;;;;;5.22;3.90;;;33.10;92.90;;;;;;1898501;74;21111;-71
2022/07/17 08:28:01;;;;;;;5.53;3.90;;;33.10;92.20;;;;;;1890804;74;21633;-71
2022/07/17 08:30:34;;;;;;;7.72;3.95;;;33.10;92.60;;;;;;1906793;74;21099;-71
2022/07/17 08:33:24;;;;;;;7.25;4.83;;;33.10;92.70;;;;;;1910473;74;21149;-72
2022/07/17 08:35:56;;;;;;;8.15;4.37;;;33.10;92.60;;;;;;1873075;76;21203;-71
2022/07/17 08:38:27;;;;;;;8.43;4.75;;;33.10;92.30;;;;;;1877417;76;21492;-72
2022/07/17 08:40:59;;;;;;;6.28;3.98;;;33.10;92.60;;;;;;1861280;76;21120;-68
2022/07/17 08:43:30;;;;;;;5.75;4.05;;;33.20;91.90;;;;;;1866909;76;21212;-71
2022/07/17 08:46:01;;;;;;;7.20;4.05;;;33.20;92.30;;;;;;1869837;76;21157;-70
2022/07/17 08:48:34;;;;;;;8.03;3.80;;;33.20;91.50;;;;;;1869870;76;21196;-71
2022/07/17 08:51:06;;;;;;;8.25;4.25;;;33.20;91.70;;;;;;1859831;76;21160;-72
2022/07/17 08:53:37;;;;;;;6.78;3.50;;;33.20;91.90;;;;;;1860876;76;21070;-71
2022/07/17 08:56:09;;;;;;;5.83;3.55;;;33.20;91.70;;;;;;1869540;76;21171;-70
2022/07/17 08:58:41;;;;;;;5.00;3.80;;;33.10;91.70;;;;;;1866002;76;21264;-71
2022/07/17 09:01:12;;;;;;;7.72;3.20;;;33.10;92.10;;;;;;1856369;76;21133;-71
2022/07/17 09:03:44;;;;;;;3.65;3.05;;;33.10;91.60;;;;;;1858063;76;21117;-71
2022/07/17 09:06:18;;;;;;;7.95;3.00;;;33.10;92.00;;;;;;1854813;76;21366;-71
2022/07/17 09:08:51;;;;;;;4.45;2.95;;;33.00;91.90;;;;;;1790380;80;21169;-71
2022/07/17 09:11:22;;;;;;;3.85;2.90;;;33.00;91.90;;;;;;1867179;76;21185;-69
2022/07/17 09:13:54;;;;;;;6.37;3.70;;;33.00;92.20;;;;;;1864941;76;21203;-71
2022/07/17 09:16:26;;;;;;;5.87;3.70;;;32.90;92.70;;;;;;1867881;76;21759;-70
2022/07/17 09:18:59;;;;;;;7.35;4.42;;;32.90;92.80;;;;;;1873622;76;21165;-70
2022/07/17 09:21:31;;;;;;;6.42;3.47;;;32.90;92.90;;;;;;1852710;77;21664;-71
2022/07/17 09:24:06;;;;;;;5.85;3.40;;;32.80;93.00;;;;;;1850514;76;21086;-70
2022/07/17 09:26:39;;;;;;;5.20;2.95;;;32.80;92.90;;;;;;1858528;76;21138;-70
2022/07/17 09:29:11;;;;;;;6.53;3.40;;;32.80;92.90;;;;;;1857130;76;21174;-70
2022/07/17 09:31:42;;;;;;;5.83;3.05;;;32.80;93.00;;;;;;1851731;76;21674;-71
2022/07/17 09:34:16;;;;;;;5.40;3.17;;;32.80;93.00;;;;;;1849445;76;21078;-71
2022/07/17 09:36:48;;;;;;;5.37;2.98;;;32.80;92.80;;;;;;1864779;76;21805;-70
2022/07/17 09:39:21;;;;;;;4.25;2.65;;;32.80;92.50;;;;;;1856038;76;21224;-71
2022/07/17 09:41:51;;;;;;;5.22;2.85;;;32.80;92.20;;;;;;1851838;76;21161;-71
2022/07/17 09:44:22;;;;;;;5.92;2.85;;;32.80;92.10;;;;;;1858866;76;21514;-71
2022/07/17 09:46:55;;;;;;;3.33;2.50;;;32.80;92.30;;;;;;1855555;76;21176;-71
2022/07/17 09:49:28;;;;;;;5.12;2.95;;;32.80;92.30;;;;;;1858954;76;21629;-70
2022/07/17 09:52:01;;;;;;;4.80;2.58;;;32.80;92.30;;;;;;1848174;76;21548;-70
2022/07/17 09:54:34;;;;;;;6.10;2.70;;;32.80;92.00;;;;;;1856408;76;21134;-70
2022/07/17 09:57:06;;;;;;;3.05;2.20;;;32.80;91.60;;;;;;1855299;76;21133;-71
2022/07/17 09:59:39;;;;;;;5.03;2.10;;;32.80;91.60;;;;;;1854309;76;21661;-71
2022/07/17 10:02:11;;;;;;;4.12;2.65;;;32.80;91.30;;;;;;1853134;76;21193;-71
2022/07/17 10:04:42;;;;;;;6.05;2.72;;;32.80;91.60;;;;;;1852273;76;21134;-71
2022/07/17 10:07:14;;;;;;;4.62;2.00;;;32.80;91.90;;;;;;1851094;76;21116;-72
2022/07/17 10:09:45;;;;;;;4.60;2.10;;;32.80;91.50;;;;;;1854781;76;21118;-70
2022/07/17 10:12:18;;;;;;;4.08;2.10;;;32.80;91.40;;;;;;1855195;76;21164;-70
2022/07/17 10:14:51;;;;;;;4.90;2.50;;;32.80;91.50;;;;;;1852644;76;21118;-71
2022/07/17 10:17:23;;;;;;;5.40;2.33;;;32.80;91.30;;;;;;1855611;76;21172;-71
2022/07/17 10:19:56;;;;;;;4.72;2.42;;;32.80;91.50;;;;;;1856365;76;21087;-71
2022/07/17 10:22:28;;;;;;;3.95;2.30;;;32.80;91.10;;;;;;1853123;76;21155;-70
2022/07/17 10:25:00;;;;;;;5.00;2.15;;;32.70;91.20;;;;;;1854533;76;21150;-71
2022/07/17 10:27:32;;;;;;;6.97;2.60;;;32.80;91.70;;;;;;1857220;76;21172;-71
2022/07/17 10:30:05;;;;;;;3.70;2.52;;;32.70;91.40;;;;;;1858193;76;21067;-71
2022/07/17 10:32:38;;;;;;;;;;;32.70;91.20;;;;;;1858450;76;21505;-71
2022/07/17 10:35:11;;;;;;;4.87;2.42;;;32.70;91.80;;;;;;1857600;76;20543;-84
2022/07/17 10:37:44;;;;;;;5.10;2.42;;;32.70;91.90;;;;;;1798486;79;22664;-84
2022/07/17 10:40:17;;;;;;;4.22;2.60;;;32.60;91.80;;;;;;1797742;80;21085;-85
2022/07/17 10:42:51;;;;;;;4.10;2.22;;;32.60;91.90;;;;;;1790657;79;21162;-85
2022/07/17 10:45:24;;;;;;;6.37;2.50;;;32.60;92.00;;;;;;1800715;79;21186;-83
2022/07/17 10:47:58;;;;;;;5.70;2.55;;;32.50;92.10;;;;;;1834501;77;22238;-85
2022/07/17 10:50:35;;;;;;;4.22;2.75;;;32.50;92.40;;;;;;1821457;78;21585;-83
2022/07/17 10:53:08;;;;;;;3.70;2.45;;;32.40;92.50;;;;;;1811769;78;21608;-83
2022/07/17 10:55:41;;;;;;;4.85;3.00;;;32.40;92.70;;;;;;1803710;78;21099;-84
2022/07/17 10:58:14;;;;;;;7.00;3.17;;;32.40;92.90;;;;;;1799953;78;21230;-85
2022/07/17 11:00:49;;;;;;;4.75;2.60;;;32.40;92.90;;;;;;1799667;78;21260;-85
2022/07/17 11:03:20;;;;;;;7.35;2.60;;;32.30;92.80;;;;;;1783918;80;21151;-85
2022/07/17 11:05:51;;;;;;;3.98;2.30;;;32.30;92.50;;;;;;1818679;77;21081;-85
2022/07/17 11:08:22;;;;;;;6.28;2.27;;;32.20;92.40;;;;;;1793200;79;21154;-85
2022/07/17 11:10:53;;;;;;;7.28;2.10;;;32.20;92.40;;;;;;1807353;79;21132;-85
2022/07/17 11:13:24;;;;;;;8.68;2.02;;;32.20;92.70;;;;;;1788726;80;21650;-84
2022/07/17 11:15:56;;;;;;;4.30;2.10;;;32.20;92.40;;;;;;1788591;80;21147;-83
2022/07/17 11:18:27;;;;;;;3.60;1.80;;;32.10;92.30;;;;;;1793554;80;21174;-83
2022/07/17 11:21:01;;;;;;;4.45;2.12;;;32.10;92.20;;;;;;1807960;79;21183;-83
2022/07/17 11:23:34;;;;;;;4.62;2.37;;;32.10;92.30;;;;;;1805354;78;21210;-84
2022/07/17 11:26:07;;;;;;;5.45;2.87;;;32.10;92.60;;;;;;1819964;78;21146;-84
2022/07/17 11:28:41;;;;;;;4.05;2.80;;;32.10;93.20;;;;;;1814306;78;21143;-85
2022/07/17 11:31:15;;;;;;;7.95;4.17;;;32.00;93.60;;;;;;1798971;78;21153;-85
2022/07/17 11:33:49;;;;;;;10.38;4.12;;;31.90;93.90;;;;;;1780703;78;21184;-83
2022/07/17 11:36:22;;;;;;;6.78;3.85;;;31.90;94.10;;;;;;1779334;80;21212;-84
2022/07/17 11:38:56;;;;;;;6.10;3.55;;;31.80;94.10;;;;;;1796851;80;21160;-84
2022/07/17 11:41:39;;;;;;;9.75;4.53;;;31.70;94.40;;;;;;1803755;79;21172;-84
2022/07/17 11:44:13;;;;;;;6.62;3.80;;;31.60;94.70;;;;;;1799637;79;21117;-83
2022/07/17 11:46:46;;;;;;;9.75;4.47;;;31.60;94.60;;;;;;1797825;80;21102;-84
2022/07/17 11:49:19;;;;;;;4.80;2.85;;;31.50;94.70;;;;;;1795184;79;21269;-83
2022/07/17 11:51:50;;;;;;;6.65;3.30;;;31.40;94.60;;;;;;1798846;79;21217;-84
2022/07/17 11:54:21;;;;;;;8.65;3.33;;;31.40;94.70;;;;;;1799762;79;21165;-84
2022/07/17 11:56:55;;;;;;;6.97;3.00;;;31.30;94.60;;;;;;1805993;78;21202;-83
2022/07/17 11:59:28;;;;;;;5.00;3.20;;;31.20;94.60;;;;;;1752713;82;21117;-84
2022/07/17 12:02:01;;;;;;;5.90;3.67;;;31.10;94.80;;;;;;1824913;78;21172;-83
2022/07/17 12:04:33;;;;;;;5.25;3.10;;;31.10;95.00;;;;;;1791729;79;21660;-83
2022/07/17 12:07:05;;;;;;;6.58;3.02;;;31.00;94.80;;;;;;1779533;80;21571;-83
2022/07/17 12:09:36;;;;;;;4.80;2.77;;;31.00;95.20;;;;;;1782823;80;21185;-82
2022/07/17 12:12:09;;;;;;;6.25;3.70;;;30.90;95.20;;;;;;1801157;78;21110;-84
2022/07/17 12:14:42;;;;;;;9.98;5.50;;;30.90;95.40;;;;;;1810785;79;21130;-83
2022/07/17 12:17:13;;;;;;;8.75;5.05;;;30.80;95.30;;;;;;1760416;79;21212;-83
2022/07/17 12:19:45;;;;;;;8.88;5.22;;;30.80;95.30;;;;;;1782709;80;21232;-84
2022/07/17 12:22:16;;;;;;;8.98;4.90;;;30.70;95.20;;;;;;1813528;79;21152;-83
2022/07/17 12:24:48;;;;;;;9.70;5.22;;;30.70;95.20;;;;;;1783123;80;21112;-84
2022/07/17 12:27:19;;;;;;;9.93;6.12;;;30.70;95.20;;;;;;1782873;80;21554;-85
2022/07/17 12:29:50;;;;;;;11.28;5.80;;;30.70;95.20;;;;;;1811765;79;21146;-83
2022/07/17 12:32:22;;;;;;;10.68;6.30;;;30.70;95.00;;;;;;1771511;80;21158;-84
2022/07/17 12:34:53;;;;;;;11.78;5.10;;;30.70;95.00;;;;;;1764756;81;21197;-83
2022/07/17 12:37:27;;;;;;;7.97;4.53;;;30.70;95.20;;;;;;1809513;76;21183;-83
2022/07/17 12:40:02;;;;;;;11.53;4.95;;;30.60;95.20;;;;;;1831087;78;21088;-84
2022/07/17 12:42:33;;;;;;;9.53;4.30;;;30.60;95.10;;;;;;1806036;79;21232;-84
2022/07/17 12:45:04;;;;;;;14.30;4.92;;;30.60;95.00;;;;;;1806851;79;21175;-83
2022/07/17 12:47:39;;;;;;;9.53;5.20;;;30.50;95.30;;;;;;1819059;78;21151;-82
2022/07/17 12:50:10;;;;;;;13.72;5.17;;;30.50;95.20;;;;;;1814314;78;21158;-84
2022/07/17 12:52:41;;;;;;;9.25;4.87;;;30.50;95.20;;;;;;1796476;79;21191;-84
2022/07/17 12:55:14;;;;;;;10.55;5.17;;;30.50;95.10;;;;;;1793714;79;21212;-84
2022/07/17 12:57:45;;;;;;;11.35;5.37;;;30.40;95.00;;;;;;1804524;78;21084;-83
2022/07/17 13:00:18;;;;;;;8.30;5.53;;;30.40;95.20;;;;;;1813551;79;21183;-84
2022/07/17 13:02:49;;;;;;;8.73;5.10;;;30.40;95.30;;;;;;1811814;79;21197;-84
2022/07/17 13:05:23;;;;;;;8.53;5.12;;;30.30;95.40;;;;;;1812959;79;21467;-84
2022/07/17 13:07:54;;;;;;;8.05;5.17;;;30.30;95.50;;;;;;1813103;79;21077;-83
2022/07/17 13:10:27;;;;;;;7.72;4.70;;;30.30;95.50;;;;;;1801307;79;21110;-83